sensor_id;sensor_type;location;lat;lon;timestamp;pressure;altitude;pressure_sealevel;temperature;humidity
60258;BME280;46115;44.484;11.314;2023-03-17T00:03:03;101048.84;;;6.64;48.86
60258;BME280;46115;44.484;11.314;2023-03-17T00:07:06;101010.84;;;6.41;48.40
60258;BME280;46115;44.484;11.314;2023-03-17T00:11:11;101051.75;;;6.51;50.55
60258;BME280;46115;44.484;11.314;2023-03-17T00:15:14;101041.56;;;6.75;48.55
60258;BME280;46115;44.484;11.314;2023-03-17T00:19:28;101026.47;;;6.47;51.38
60258;BME280;46115;44.484;11.314;2023-03-17T00:23:32;101033.81;;;6.33;51.10
60258;BME280;46115;44.484;11.314;2023-03-17T00:27:36;101028.81;;;6.60;49.87
60258;BME280;46115;44.484;11.314;2023-03-17T00:31:39;101020.94;;;6.60;49.80
60258;BME280;46115;44.484;11.314;2023-03-17T00:35:41;101032.19;;;6.65;48.42
60258;BME280;46115;44.484;11.314;2023-03-17T00:39:45;101018.28;;;6.61;50.15
60258;BME280;46115;44.484;11.314;2023-03-17T00:43:49;101025.47;;;6.51;50.24
60258;BME280;46115;44.484;11.314;2023-03-17T00:47:53;101032.28;;;6.62;49.70
60258;BME280;46115;44.484;11.314;2023-03-17T00:51:56;101020.97;;;6.56;52.10
60258;BME280;46115;44.484;11.314;2023-03-17T00:56:00;101025.19;;;6.65;49.82
60258;BME280;46115;44.484;11.314;2023-03-17T01:00:05;101034.53;;;6.77;50.42
60258;BME280;46115;44.484;11.314;2023-03-17T01:04:09;101029.31;;;6.75;50.08
60258;BME280;46115;44.484;11.314;2023-03-17T01:08:11;101029.84;;;6.52;52.24
60258;BME280;46115;44.484;11.314;2023-03-17T01:12:15;101029.19;;;6.43;52.72
60258;BME280;46115;44.484;11.314;2023-03-17T01:16:19;101023.69;;;6.15;54.38
60258;BME280;46115;44.484;11.314;2023-03-17T01:20:25;101022.94;;;6.10;55.38
60258;BME280;46115;44.484;11.314;2023-03-17T01:24:27;101019.00;;;5.90;56.20
60258;BME280;46115;44.484;11.314;2023-03-17T01:28:30;101023.00;;;5.63;58.04
60258;BME280;46115;44.484;11.314;2023-03-17T01:32:34;101018.44;;;5.72;57.87
60258;BME280;46115;44.484;11.314;2023-03-17T01:36:36;101023.78;;;5.69;57.96
60258;BME280;46115;44.484;11.314;2023-03-17T01:40:41;101014.53;;;5.48;58.87
60258;BME280;46115;44.484;11.314;2023-03-17T01:44:59;101001.69;;;5.36;59.24
60258;BME280;46115;44.484;11.314;2023-03-17T01:49:07;100996.69;;;5.23;59.47
60258;BME280;46115;44.484;11.314;2023-03-17T01:53:11;101003.56;;;5.29;59.90
60258;BME280;46115;44.484;11.314;2023-03-17T01:57:15;100976.03;;;5.05;59.73
60258;BME280;46115;44.484;11.314;2023-03-17T02:01:24;100992.63;;;5.06;60.87
60258;BME280;46115;44.484;11.314;2023-03-17T02:05:30;101002.09;;;5.13;60.64
60258;BME280;46115;44.484;11.314;2023-03-17T02:09:33;101007.25;;;5.17;61.07
60258;BME280;46115;44.484;11.314;2023-03-17T02:13:36;101002.50;;;4.91;61.08
60258;BME280;46115;44.484;11.314;2023-03-17T02:17:38;101004.28;;;4.89;63.03
60258;BME280;46115;44.484;11.314;2023-03-17T02:21:45;101000.13;;;4.76;61.38
60258;BME280;46115;44.484;11.314;2023-03-17T02:25:49;101005.16;;;4.90;61.68
60258;BME280;46115;44.484;11.314;2023-03-17T02:29:52;101011.44;;;4.78;61.39
60258;BME280;46115;44.484;11.314;2023-03-17T02:33:55;101005.47;;;4.70;61.80
60258;BME280;46115;44.484;11.314;2023-03-17T02:37:58;100998.63;;;4.61;61.86
60258;BME280;46115;44.484;11.314;2023-03-17T02:42:04;101000.41;;;4.59;61.94
60258;BME280;46115;44.484;11.314;2023-03-17T02:46:08;100996.09;;;4.57;62.33
60258;BME280;46115;44.484;11.314;2023-03-17T02:50:13;100994.63;;;4.37;63.14
60258;BME280;46115;44.484;11.314;2023-03-17T02:54:20;100996.94;;;4.59;62.33
60258;BME280;46115;44.484;11.314;2023-03-17T02:58:22;101000.56;;;4.47;63.43
60258;BME280;46115;44.484;11.314;2023-03-17T03:02:24;101000.69;;;4.41;63.36
60258;BME280;46115;44.484;11.314;2023-03-17T03:06:27;101006.06;;;4.32;63.88
60258;BME280;46115;44.484;11.314;2023-03-17T03:10:30;101004.97;;;4.45;62.71
60258;BME280;46115;44.484;11.314;2023-03-17T03:14:33;100994.66;;;4.36;62.98
60258;BME280;46115;44.484;11.314;2023-03-17T03:18:35;100994.00;;;4.22;63.23
60258;BME280;46115;44.484;11.314;2023-03-17T03:22:38;100993.38;;;4.04;64.10
60258;BME280;46115;44.484;11.314;2023-03-17T03:26:41;100998.56;;;4.06;64.58
60258;BME280;46115;44.484;11.314;2023-03-17T03:30:44;100958.84;;;3.78;64.53
60258;BME280;46115;44.484;11.314;2023-03-17T03:34:46;101013.72;;;3.84;65.31
60258;BME280;46115;44.484;11.314;2023-03-17T03:38:49;101009.06;;;4.04;64.14
60258;BME280;46115;44.484;11.314;2023-03-17T03:42:53;101010.94;;;3.95;64.43
60258;BME280;46115;44.484;11.314;2023-03-17T03:46:55;101010.19;;;3.87;64.91
60258;BME280;46115;44.484;11.314;2023-03-17T03:50:58;101009.34;;;3.85;64.76
60258;BME280;46115;44.484;11.314;2023-03-17T03:55:00;101013.75;;;3.78;65.63
60258;BME280;46115;44.484;11.314;2023-03-17T03:59:04;101019.91;;;3.74;64.86
60258;BME280;46115;44.484;11.314;2023-03-17T04:03:07;101015.44;;;3.85;64.80
60258;BME280;46115;44.484;11.314;2023-03-17T04:07:09;101025.00;;;3.88;64.72
60258;BME280;46115;44.484;11.314;2023-03-17T04:11:11;101020.00;;;3.66;65.54
60258;BME280;46115;44.484;11.314;2023-03-17T04:15:16;101022.63;;;3.66;65.84
60258;BME280;46115;44.484;11.314;2023-03-17T04:19:19;101023.63;;;3.56;65.46
60258;BME280;46115;44.484;11.314;2023-03-17T04:23:22;101027.78;;;3.71;64.52
60258;BME280;46115;44.484;11.314;2023-03-17T04:27:24;101018.28;;;3.64;64.94
60258;BME280;46115;44.484;11.314;2023-03-17T04:31:28;101015.00;;;3.47;65.75
60258;BME280;46115;44.484;11.314;2023-03-17T04:35:31;101018.59;;;3.38;65.79
60258;BME280;46115;44.484;11.314;2023-03-17T04:39:33;101017.72;;;3.37;66.38
60258;BME280;46115;44.484;11.314;2023-03-17T04:43:37;101018.50;;;3.44;66.30
60258;BME280;46115;44.484;11.314;2023-03-17T04:47:41;101018.50;;;3.44;66.38
60258;BME280;46115;44.484;11.314;2023-03-17T04:51:43;100985.59;;;3.29;64.94
60258;BME280;46115;44.484;11.314;2023-03-17T04:55:46;101006.19;;;3.57;65.22
60258;BME280;46115;44.484;11.314;2023-03-17T04:59:48;101003.00;;;3.30;66.30
60258;BME280;46115;44.484;11.314;2023-03-17T05:03:52;101009.94;;;3.31;66.47
60258;BME280;46115;44.484;11.314;2023-03-17T05:07:55;101004.63;;;3.40;66.04
60258;BME280;46115;44.484;11.314;2023-03-17T05:11:57;101013.31;;;3.41;65.33
60258;BME280;46115;44.484;11.314;2023-03-17T05:15:59;101015.00;;;3.47;64.67
60258;BME280;46115;44.484;11.314;2023-03-17T05:20:04;101021.25;;;3.33;65.58
60258;BME280;46115;44.484;11.314;2023-03-17T05:24:08;101011.75;;;3.26;65.09
60258;BME280;46115;44.484;11.314;2023-03-17T05:28:10;101016.13;;;3.26;65.06
60258;BME280;46115;44.484;11.314;2023-03-17T05:32:13;101014.38;;;3.26;64.55
60258;BME280;46115;44.484;11.314;2023-03-17T05:36:16;101012.41;;;3.43;64.84
60258;BME280;46115;44.484;11.314;2023-03-17T05:40:19;101008.28;;;3.24;65.24
60258;BME280;46115;44.484;11.314;2023-03-17T05:44:21;101011.72;;;3.28;65.29
60258;BME280;46115;44.484;11.314;2023-03-17T05:48:23;101005.72;;;3.20;65.10
60258;BME280;46115;44.484;11.314;2023-03-17T05:52:28;101006.50;;;3.29;64.92
60258;BME280;46115;44.484;11.314;2023-03-17T05:56:30;101007.06;;;3.56;64.51
60258;BME280;46115;44.484;11.314;2023-03-17T06:00:33;101013.97;;;3.63;64.73
60258;BME280;46115;44.484;11.314;2023-03-17T06:04:36;101014.81;;;3.63;64.42
60258;BME280;46115;44.484;11.314;2023-03-17T06:08:40;101011.47;;;4.21;62.60
60258;BME280;46115;44.484;11.314;2023-03-17T06:12:43;101014.28;;;4.04;62.94
60258;BME280;46115;44.484;11.314;2023-03-17T06:16:45;101018.88;;;4.49;62.00
60258;BME280;46115;44.484;11.314;2023-03-17T06:20:47;101019.25;;;4.80;61.50
60258;BME280;46115;44.484;11.314;2023-03-17T06:24:51;101017.91;;;5.08;60.38
60258;BME280;46115;44.484;11.314;2023-03-17T06:28:53;101018.63;;;5.16;59.68
60258;BME280;46115;44.484;11.314;2023-03-17T06:32:56;101022.22;;;5.58;58.77
60258;BME280;46115;44.484;11.314;2023-03-17T06:36:58;101007.66;;;5.85;58.05
60258;BME280;46115;44.484;11.314;2023-03-17T06:41:02;101014.41;;;6.00;56.93
60258;BME280;46115;44.484;11.314;2023-03-17T06:45:05;101012.91;;;6.66;56.22
60258;BME280;46115;44.484;11.314;2023-03-17T06:49:09;101016.28;;;6.71;54.74
60258;BME280;46115;44.484;11.314;2023-03-17T06:53:13;101022.06;;;7.19;53.82
60258;BME280;46115;44.484;11.314;2023-03-17T06:57:17;101029.38;;;7.40;52.43
60258;BME280;46115;44.484;11.314;2023-03-17T07:01:19;101029.53;;;8.26;51.00
60258;BME280;46115;44.484;11.314;2023-03-17T07:05:22;101027.69;;;7.70;50.39
60258;BME280;46115;44.484;11.314;2023-03-17T07:09:24;101039.28;;;8.53;48.95
60258;BME280;46115;44.484;11.314;2023-03-17T07:13:28;101040.88;;;9.36;48.12
60258;BME280;46115;44.484;11.314;2023-03-17T07:17:35;101044.94;;;8.69;48.81
60258;BME280;46115;44.484;11.314;2023-03-17T07:21:38;101040.94;;;10.31;47.22
60258;BME280;46115;44.484;11.314;2023-03-17T07:25:40;101037.50;;;10.73;44.44
60258;BME280;46115;44.484;11.314;2023-03-17T07:29:45;101025.31;;;10.91;43.71
60258;BME280;46115;44.484;11.314;2023-03-17T07:33:48;101044.97;;;11.06;44.66
60258;BME280;46115;44.484;11.314;2023-03-17T07:37:50;101047.47;;;11.92;43.62
60258;BME280;46115;44.484;11.314;2023-03-17T07:41:53;101052.13;;;12.62;42.12
60258;BME280;46115;44.484;11.314;2023-03-17T07:45:57;101044.53;;;11.98;42.12
60258;BME280;46115;44.484;11.314;2023-03-17T07:49:59;101048.03;;;13.44;39.90
60258;BME280;46115;44.484;11.314;2023-03-17T07:54:04;101049.41;;;13.51;39.75
60258;BME280;46115;44.484;11.314;2023-03-17T07:58:07;101047.84;;;14.30;38.35
60258;BME280;46115;44.484;11.314;2023-03-17T08:02:14;101045.19;;;14.78;37.68
60258;BME280;46115;44.484;11.314;2023-03-17T08:06:17;101045.03;;;15.11;35.64
60258;BME280;46115;44.484;11.314;2023-03-17T08:10:19;101040.16;;;15.91;33.05
60258;BME280;46115;44.484;11.314;2023-03-17T08:14:22;101044.44;;;16.22;33.21
60258;BME280;46115;44.484;11.314;2023-03-17T08:18:26;101045.63;;;17.13;31.19
60258;BME280;46115;44.484;11.314;2023-03-17T08:22:29;101047.47;;;17.26;31.59
60258;BME280;46115;44.484;11.314;2023-03-17T08:26:32;101043.69;;;17.68;30.75
60258;BME280;46115;44.484;11.314;2023-03-17T08:30:34;101041.31;;;17.63;30.50
60258;BME280;46115;44.484;11.314;2023-03-17T08:34:39;101038.63;;;18.39;29.58
60258;BME280;46115;44.484;11.314;2023-03-17T08:38:42;101031.72;;;18.48;28.90
60258;BME280;46115;44.484;11.314;2023-03-17T08:42:46;101049.03;;;19.51;28.38
60258;BME280;46115;44.484;11.314;2023-03-17T08:46:49;101046.56;;;20.50;27.56
60258;BME280;46115;44.484;11.314;2023-03-17T08:50:53;101037.81;;;18.87;28.07
60258;BME280;46115;44.484;11.314;2023-03-17T08:54:56;101044.97;;;20.14;26.93
60258;BME280;46115;44.484;11.314;2023-03-17T08:58:58;101048.31;;;20.83;26.62
60258;BME280;46115;44.484;11.314;2023-03-17T09:03:01;101049.53;;;21.11;26.44
60258;BME280;46115;44.484;11.314;2023-03-17T09:07:05;101047.38;;;21.58;25.56
60258;BME280;46115;44.484;11.314;2023-03-17T09:11:08;101039.50;;;21.24;26.42
60258;BME280;46115;44.484;11.314;2023-03-17T09:15:11;101038.50;;;18.78;30.12
60258;BME280;46115;44.484;11.314;2023-03-17T09:19:13;101049.28;;;22.68;25.27
60258;BME280;46115;44.484;11.314;2023-03-17T09:23:19;101035.69;;;22.79;24.93
60258;BME280;46115;44.484;11.314;2023-03-17T09:27:23;101040.16;;;22.50;24.74
60258;BME280;46115;44.484;11.314;2023-03-17T09:31:25;101036.09;;;22.55;26.21
60258;BME280;46115;44.484;11.314;2023-03-17T09:35:28;101031.91;;;20.32;27.26
60258;BME280;46115;44.484;11.314;2023-03-17T09:39:32;101028.69;;;19.13;28.92
60258;BME280;46115;44.484;11.314;2023-03-17T09:43:42;101028.59;;;20.39;28.16
60258;BME280;46115;44.484;11.314;2023-03-17T09:52:32;101035.00;;;24.11;24.62
60258;BME280;46115;44.484;11.314;2023-03-17T09:56:39;101002.09;;;23.31;25.42
60258;BME280;46115;44.484;11.314;2023-03-17T10:00:44;101007.03;;;20.07;29.89
60258;BME280;46115;44.484;11.314;2023-03-17T10:04:46;101009.72;;;17.05;33.56
60258;BME280;46115;44.484;11.314;2023-03-17T10:08:53;100969.28;;;16.97;34.75
60258;BME280;46115;44.484;11.314;2023-03-17T10:13:07;100997.41;;;16.07;35.72
60258;BME280;46115;44.484;11.314;2023-03-17T10:17:16;100986.66;;;14.15;38.72
60258;BME280;46115;44.484;11.314;2023-03-17T10:21:21;100972.47;;;14.77;38.71
60258;BME280;46115;44.484;11.314;2023-03-17T10:25:27;100977.06;;;13.63;39.61
60258;BME280;46115;44.484;11.314;2023-03-17T10:29:31;100982.38;;;14.59;39.24
60258;BME280;46115;44.484;11.314;2023-03-17T10:33:34;100978.06;;;14.57;40.35
60258;BME280;46115;44.484;11.314;2023-03-17T10:37:36;100975.44;;;14.25;38.38
60258;BME280;46115;44.484;11.314;2023-03-17T10:41:47;100992.03;;;13.31;39.95
60258;BME280;46115;44.484;11.314;2023-03-17T10:45:58;100981.53;;;13.11;42.39
60258;BME280;46115;44.484;11.314;2023-03-17T10:50:10;100979.53;;;12.99;43.26
60258;BME280;46115;44.484;11.314;2023-03-17T10:54:20;100961.81;;;13.34;41.75
60258;BME280;46115;44.484;11.314;2023-03-17T10:58:35;100967.88;;;14.02;41.50
60258;BME280;46115;44.484;11.314;2023-03-17T11:02:45;100970.91;;;13.63;43.00
60258;BME280;46115;44.484;11.314;2023-03-17T11:06:49;100967.88;;;14.02;41.26
60258;BME280;46115;44.484;11.314;2023-03-17T11:10:54;100953.50;;;13.40;42.93
60258;BME280;46115;44.484;11.314;2023-03-17T11:14:59;100966.34;;;13.32;42.76
60258;BME280;46115;44.484;11.314;2023-03-17T11:19:05;100968.44;;;13.08;43.28
60258;BME280;46115;44.484;11.314;2023-03-17T11:23:21;100959.97;;;13.52;42.72
60258;BME280;46115;44.484;11.314;2023-03-17T11:27:30;100952.22;;;13.31;43.45
60258;BME280;46115;44.484;11.314;2023-03-17T11:31:37;100943.09;;;13.53;42.67
60258;BME280;46115;44.484;11.314;2023-03-17T11:35:49;100957.34;;;12.65;44.55
60258;BME280;46115;44.484;11.314;2023-03-17T11:40:02;100938.38;;;12.56;43.96
60258;BME280;46115;44.484;11.314;2023-03-17T11:48:47;100872.31;;;13.36;41.65
60258;BME280;46115;44.484;11.314;2023-03-17T11:53:08;100915.78;;;13.16;43.30
60258;BME280;46115;44.484;11.314;2023-03-17T11:57:20;100918.56;;;12.97;43.59
60258;BME280;46115;44.484;11.314;2023-03-17T12:01:28;100912.66;;;13.42;43.30
60258;BME280;46115;44.484;11.314;2023-03-17T12:05:34;100897.59;;;13.43;42.22
60258;BME280;46115;44.484;11.314;2023-03-17T12:09:41;100894.94;;;13.43;43.04
60258;BME280;46115;44.484;11.314;2023-03-17T12:13:50;100890.03;;;13.35;42.80
60258;BME280;46115;44.484;11.314;2023-03-17T12:17:56;100863.81;;;13.12;40.49
60258;BME280;46115;44.484;11.314;2023-03-17T12:22:05;100886.78;;;13.30;41.18
60258;BME280;46115;44.484;11.314;2023-03-17T12:26:13;100882.81;;;13.55;41.69
60258;BME280;46115;44.484;11.314;2023-03-17T12:30:24;100887.91;;;12.92;41.73
60258;BME280;46115;44.484;11.314;2023-03-17T12:34:32;100871.66;;;13.64;41.15
60258;BME280;46115;44.484;11.314;2023-03-17T12:38:40;100863.75;;;13.47;38.83
60258;BME280;46115;44.484;11.314;2023-03-17T12:42:49;100856.53;;;13.33;39.80
60258;BME280;46115;44.484;11.314;2023-03-17T12:47:12;100845.75;;;13.52;39.62
60258;BME280;46115;44.484;11.314;2023-03-17T12:51:56;100855.13;;;12.75;41.13
60258;BME280;46115;44.484;11.314;2023-03-17T12:56:09;100840.69;;;13.14;40.74
60258;BME280;46115;44.484;11.314;2023-03-17T13:00:22;100836.66;;;13.24;39.83
60258;BME280;46115;44.484;11.314;2023-03-17T13:04:31;100835.00;;;12.89;40.48
60258;BME280;46115;44.484;11.314;2023-03-17T13:08:38;100819.88;;;13.06;40.69
60258;BME280;46115;44.484;11.314;2023-03-17T13:13:10;100800.28;;;13.26;40.65
60258;BME280;46115;44.484;11.314;2023-03-17T13:17:33;100789.84;;;13.55;39.54
60258;BME280;46115;44.484;11.314;2023-03-17T13:21:36;100802.31;;;13.53;39.72
60258;BME280;46115;44.484;11.314;2023-03-17T13:25:48;100797.97;;;13.67;39.87
60258;BME280;46115;44.484;11.314;2023-03-17T13:29:53;100796.59;;;13.60;41.10
60258;BME280;46115;44.484;11.314;2023-03-17T13:34:01;100796.16;;;13.68;40.96
60258;BME280;46115;44.484;11.314;2023-03-17T13:38:26;100789.38;;;13.94;39.99
60258;BME280;46115;44.484;11.314;2023-03-17T13:42:50;100774.41;;;14.07;39.72
60258;BME280;46115;44.484;11.314;2023-03-17T13:47:14;100780.38;;;13.49;39.85
60258;BME280;46115;44.484;11.314;2023-03-17T13:51:20;100783.81;;;13.35;40.60
60258;BME280;46115;44.484;11.314;2023-03-17T13:55:36;100765.91;;;13.39;40.91
60258;BME280;46115;44.484;11.314;2023-03-17T13:59:53;100767.47;;;13.59;41.38
60258;BME280;46115;44.484;11.314;2023-03-17T14:03:57;100759.09;;;13.81;41.79
60258;BME280;46115;44.484;11.314;2023-03-17T14:08:12;100735.75;;;13.71;41.70
60258;BME280;46115;44.484;11.314;2023-03-17T14:12:22;100751.22;;;13.95;41.42
60258;BME280;46115;44.484;11.314;2023-03-17T14:16:29;100725.00;;;13.89;40.82
60258;BME280;46115;44.484;11.314;2023-03-17T14:20:32;100712.91;;;13.83;41.46
60258;BME280;46115;44.484;11.314;2023-03-17T14:24:36;100728.75;;;13.85;40.86
60258;BME280;46115;44.484;11.314;2023-03-17T14:28:40;100735.28;;;13.95;40.51
60258;BME280;46115;44.484;11.314;2023-03-17T14:32:46;100693.59;;;13.50;40.58
60258;BME280;46115;44.484;11.314;2023-03-17T14:36:50;100746.50;;;13.54;40.40
60258;BME280;46115;44.484;11.314;2023-03-17T14:41:00;100729.16;;;13.63;40.73
60258;BME280;46115;44.484;11.314;2023-03-17T14:45:06;100731.69;;;13.80;40.18
60258;BME280;46115;44.484;11.314;2023-03-17T14:49:14;100724.53;;;13.51;39.68
60258;BME280;46115;44.484;11.314;2023-03-17T14:53:17;100713.75;;;13.54;40.45
60258;BME280;46115;44.484;11.314;2023-03-17T14:57:26;100715.88;;;13.63;39.87
60258;BME280;46115;44.484;11.314;2023-03-17T15:01:33;100702.78;;;13.60;39.86
60258;BME280;46115;44.484;11.314;2023-03-17T15:05:39;100705.69;;;13.85;39.87
60258;BME280;46115;44.484;11.314;2023-03-17T15:09:41;100709.06;;;13.73;39.46
60258;BME280;46115;44.484;11.314;2023-03-17T15:13:46;100699.09;;;13.47;39.70
60258;BME280;46115;44.484;11.314;2023-03-17T15:17:55;100709.72;;;13.62;40.18
60258;BME280;46115;44.484;11.314;2023-03-17T15:21:57;100704.31;;;13.64;40.12
60258;BME280;46115;44.484;11.314;2023-03-17T15:26:02;100703.72;;;13.59;40.53
60258;BME280;46115;44.484;11.314;2023-03-17T15:30:10;100711.97;;;13.54;40.06
60258;BME280;46115;44.484;11.314;2023-03-17T15:34:12;100703.41;;;13.79;39.58
60258;BME280;46115;44.484;11.314;2023-03-17T15:38:16;100694.22;;;13.85;39.30
60258;BME280;46115;44.484;11.314;2023-03-17T15:42:20;100690.75;;;13.68;39.73
60258;BME280;46115;44.484;11.314;2023-03-17T15:46:26;100701.38;;;13.68;40.11
60258;BME280;46115;44.484;11.314;2023-03-17T15:50:32;100691.22;;;13.61;40.40
60258;BME280;46115;44.484;11.314;2023-03-17T15:54:34;100697.88;;;13.68;40.05
60258;BME280;46115;44.484;11.314;2023-03-17T15:58:37;100696.28;;;13.34;40.58
60258;BME280;46115;44.484;11.314;2023-03-17T16:02:40;100660.38;;;13.42;40.50
60258;BME280;46115;44.484;11.314;2023-03-17T16:06:43;100695.84;;;13.41;40.27
60258;BME280;46115;44.484;11.314;2023-03-17T16:10:45;100690.97;;;13.18;40.33
60258;BME280;46115;44.484;11.314;2023-03-17T16:14:48;100687.53;;;13.00;40.45
60258;BME280;46115;44.484;11.314;2023-03-17T16:18:51;100688.38;;;13.17;40.50
60258;BME280;46115;44.484;11.314;2023-03-17T16:22:55;100686.94;;;12.95;41.39
60258;BME280;46115;44.484;11.314;2023-03-17T16:26:58;100695.66;;;12.97;41.15
60258;BME280;46115;44.484;11.314;2023-03-17T16:31:00;100686.34;;;12.90;41.58
60258;BME280;46115;44.484;11.314;2023-03-17T16:35:12;100689.72;;;12.61;41.00
60258;BME280;46115;44.484;11.314;2023-03-17T16:39:15;100695.97;;;12.42;41.06
60258;BME280;46115;44.484;11.314;2023-03-17T16:43:19;100682.72;;;12.42;41.44
60258;BME280;46115;44.484;11.314;2023-03-17T16:47:23;100681.06;;;12.57;41.47
60258;BME280;46115;44.484;11.314;2023-03-17T16:51:27;100686.78;;;12.49;41.44
60258;BME280;46115;44.484;11.314;2023-03-17T16:55:29;100695.72;;;12.47;41.91
60258;BME280;46115;44.484;11.314;2023-03-17T16:59:31;100698.91;;;12.21;42.55
60258;BME280;46115;44.484;11.314;2023-03-17T17:03:34;100693.69;;;12.19;42.44
60258;BME280;46115;44.484;11.314;2023-03-17T17:07:39;100687.53;;;12.01;43.08
60258;BME280;46115;44.484;11.314;2023-03-17T17:11:41;100694.19;;;11.74;43.66
60258;BME280;46115;44.484;11.314;2023-03-17T17:15:43;100693.03;;;11.62;44.68
60258;BME280;46115;44.484;11.314;2023-03-17T17:19:46;100686.94;;;11.60;45.21
60258;BME280;46115;44.484;11.314;2023-03-17T17:23:50;100694.75;;;11.63;45.88
60258;BME280;46115;44.484;11.314;2023-03-17T17:27:52;100694.81;;;11.62;45.63
60258;BME280;46115;44.484;11.314;2023-03-17T17:31:55;100689.91;;;11.71;46.18
60258;BME280;46115;44.484;11.314;2023-03-17T17:35:57;100694.44;;;11.33;47.59
60258;BME280;46115;44.484;11.314;2023-03-17T17:40:01;100643.94;;;11.02;48.45
60258;BME280;46115;44.484;11.314;2023-03-17T17:44:05;100685.00;;;11.10;49.04
60258;BME280;46115;44.484;11.314;2023-03-17T17:48:08;100691.19;;;10.90;50.58
60258;BME280;46115;44.484;11.314;2023-03-17T17:52:11;100691.19;;;10.90;50.42
60258;BME280;46115;44.484;11.314;2023-03-17T17:56:15;100684.91;;;10.93;50.76
60258;BME280;46115;44.484;11.314;2023-03-17T23:06:10;100637.69;;;7.86;61.79
60258;BME280;46115;44.484;11.314;2023-03-17T23:10:15;100636.25;;;7.77;61.62
60258;BME280;46115;44.484;11.314;2023-03-17T23:14:18;100649.88;;;7.88;62.13
60258;BME280;46115;44.484;11.314;2023-03-17T23:18:20;100652.97;;;8.01;61.60
60258;BME280;46115;44.484;11.314;2023-03-17T23:22:24;100655.56;;;7.76;62.09
60258;BME280;46115;44.484;11.314;2023-03-17T23:26:27;100623.66;;;7.60;62.14
60258;BME280;46115;44.484;11.314;2023-03-17T23:30:30;100640.47;;;7.81;62.28
60258;BME280;46115;44.484;11.314;2023-03-17T23:34:32;100644.00;;;7.55;62.57
60258;BME280;46115;44.484;11.314;2023-03-17T23:38:36;100638.94;;;7.49;63.23
60258;BME280;46115;44.484;11.314;2023-03-17T23:42:38;100641.03;;;7.39;64.33
60258;BME280;46115;44.484;11.314;2023-03-17T23:46:41;100634.09;;;7.37;63.83
60258;BME280;46115;44.484;11.314;2023-03-17T23:50:45;100602.50;;;7.12;63.85
60258;BME280;46115;44.484;11.314;2023-03-17T23:54:50;100628.13;;;7.32;64.19
60258;BME280;46115;44.484;11.314;2023-03-17T23:58:53;100636.47;;;7.18;63.84
